sensor_id;sensor_type;location;lat;lon;timestamp;temperature;humidity
24452;DHT22;13350;50.984;5.822;2024-03-23T00:54:01;6.20;99.90
24452;DHT22;13350;50.984;5.822;2024-03-23T00:56:28;6.10;99.90
24452;DHT22;13350;50.984;5.822;2024-03-23T00:58:54;6.10;99.90
24452;DHT22;13350;50.984;5.822;2024-03-23T01:01:21;6.10;99.90
24452;DHT22;13350;50.984;5.822;2024-03-23T01:03:47;6.00;99.90
24452;DHT22;13350;50.984;5.822;2024-03-23T01:06:14;6.00;99.90
24452;DHT22;13350;50.984;5.822;2024-03-23T01:08:40;6.00;99.90
24452;DHT22;13350;50.984;5.822;2024-03-23T01:11:09;5.90;99.90
24452;DHT22;13350;50.984;5.822;2024-03-23T01:13:34;5.90;99.90
24452;DHT22;13350;50.984;5.822;2024-03-23T01:16:01;5.90;99.90
24452;DHT22;13350;50.984;5.822;2024-03-23T01:18:27;5.90;99.90
24452;DHT22;13350;50.984;5.822;2024-03-23T01:20:54;5.90;99.90
24452;DHT22;13350;50.984;5.822;2024-03-23T01:23:20;5.80;99.90
24452;DHT22;13350;50.984;5.822;2024-03-23T01:25:51;5.90;99.90
24452;DHT22;13350;50.984;5.822;2024-03-23T01:28:19;5.90;99.90
24452;DHT22;13350;50.984;5.822;2024-03-23T01:30:46;5.80;99.90
24452;DHT22;13350;50.984;5.822;2024-03-23T01:33:11;5.80;99.90
24452;DHT22;13350;50.984;5.822;2024-03-23T01:35:38;5.80;99.90
24452;DHT22;13350;50.984;5.822;2024-03-23T01:38:04;5.80;99.90
24452;DHT22;13350;50.984;5.822;2024-03-23T01:40:31;5.80;99.90
24452;DHT22;13350;50.984;5.822;2024-03-23T01:42:58;5.80;99.90
24452;DHT22;13350;50.984;5.822;2024-03-23T01:45:26;5.80;99.90
24452;DHT22;13350;50.984;5.822;2024-03-23T01:47:52;5.80;99.90
24452;DHT22;13350;50.984;5.822;2024-03-23T01:50:19;5.80;99.90
24452;DHT22;13350;50.984;5.822;2024-03-23T01:52:46;5.80;99.90
24452;DHT22;13350;50.984;5.822;2024-03-23T01:55:13;5.80;99.90
24452;DHT22;13350;50.984;5.822;2024-03-23T01:57:39;5.80;99.90
24452;DHT22;13350;50.984;5.822;2024-03-23T02:00:06;5.80;99.90
24452;DHT22;13350;50.984;5.822;2024-03-23T02:02:33;5.90;99.90
24452;DHT22;13350;50.984;5.822;2024-03-23T02:05:00;5.90;99.90
24452;DHT22;13350;50.984;5.822;2024-03-23T02:07:27;5.80;99.90
24452;DHT22;13350;50.984;5.822;2024-03-23T02:09:54;5.80;99.90
24452;DHT22;13350;50.984;5.822;2024-03-23T02:12:20;5.80;99.90
24452;DHT22;13350;50.984;5.822;2024-03-23T02:14:48;5.80;99.90
24452;DHT22;13350;50.984;5.822;2024-03-23T02:17:14;5.80;99.90
24452;DHT22;13350;50.984;5.822;2024-03-23T02:19:42;5.80;99.90
24452;DHT22;13350;50.984;5.822;2024-03-23T02:22:08;5.90;99.90
24452;DHT22;13350;50.984;5.822;2024-03-23T02:24:37;5.90;99.90
24452;DHT22;13350;50.984;5.822;2024-03-23T02:27:03;5.90;99.90
24452;DHT22;13350;50.984;5.822;2024-03-23T02:29:30;5.90;99.90
24452;DHT22;13350;50.984;5.822;2024-03-23T02:31:56;5.90;99.90
24452;DHT22;13350;50.984;5.822;2024-03-23T02:34:24;5.90;99.90
24452;DHT22;13350;50.984;5.822;2024-03-23T02:36:50;5.90;99.90
24452;DHT22;13350;50.984;5.822;2024-03-23T02:39:17;5.90;99.90
24452;DHT22;13350;50.984;5.822;2024-03-23T02:41:44;5.90;99.90
24452;DHT22;13350;50.984;5.822;2024-03-23T02:44:11;5.90;99.90
24452;DHT22;13350;50.984;5.822;2024-03-23T02:46:37;5.90;99.90
24452;DHT22;13350;50.984;5.822;2024-03-23T02:49:04;5.90;99.90
24452;DHT22;13350;50.984;5.822;2024-03-23T02:51:30;5.90;99.90
24452;DHT22;13350;50.984;5.822;2024-03-23T02:53:57;5.90;99.90
24452;DHT22;13350;50.984;5.822;2024-03-23T02:56:23;5.90;99.90
24452;DHT22;13350;50.984;5.822;2024-03-23T02:58:51;5.90;99.90
24452;DHT22;13350;50.984;5.822;2024-03-23T03:01:17;5.90;99.90
24452;DHT22;13350;50.984;5.822;2024-03-23T03:03:44;5.80;99.90
24452;DHT22;13350;50.984;5.822;2024-03-23T03:06:10;5.80;99.90
24452;DHT22;13350;50.984;5.822;2024-03-23T03:08:37;5.90;99.90
24452;DHT22;13350;50.984;5.822;2024-03-23T03:11:03;5.90;99.90
24452;DHT22;13350;50.984;5.822;2024-03-23T03:13:29;6.00;99.90
24452;DHT22;13350;50.984;5.822;2024-03-23T03:15:57;6.10;99.90
24452;DHT22;13350;50.984;5.822;2024-03-23T03:18:24;6.20;99.90
24452;DHT22;13350;50.984;5.822;2024-03-23T03:20:53;6.20;99.90
24452;DHT22;13350;50.984;5.822;2024-03-23T03:23:20;6.20;99.90
24452;DHT22;13350;50.984;5.822;2024-03-23T03:25:46;6.10;99.90
24452;DHT22;13350;50.984;5.822;2024-03-23T03:28:13;6.10;99.90
24452;DHT22;13350;50.984;5.822;2024-03-23T03:30:39;6.00;99.90
24452;DHT22;13350;50.984;5.822;2024-03-23T03:33:07;5.90;99.90
24452;DHT22;13350;50.984;5.822;2024-03-23T03:35:33;6.00;99.90
24452;DHT22;13350;50.984;5.822;2024-03-23T03:38:00;5.90;99.90
24452;DHT22;13350;50.984;5.822;2024-03-23T03:40:26;5.90;99.90
24452;DHT22;13350;50.984;5.822;2024-03-23T03:42:53;5.90;99.90
24452;DHT22;13350;50.984;5.822;2024-03-23T03:45:19;5.90;99.90
24452;DHT22;13350;50.984;5.822;2024-03-23T03:47:46;5.90;99.90
24452;DHT22;13350;50.984;5.822;2024-03-23T03:50:13;5.90;99.90
24452;DHT22;13350;50.984;5.822;2024-03-23T03:52:40;5.90;99.90
24452;DHT22;13350;50.984;5.822;2024-03-23T03:55:12;5.90;99.90
24452;DHT22;13350;50.984;5.822;2024-03-23T03:57:39;5.90;99.90
24452;DHT22;13350;50.984;5.822;2024-03-23T04:00:06;5.90;99.90
24452;DHT22;13350;50.984;5.822;2024-03-23T04:02:36;5.90;99.90
24452;DHT22;13350;50.984;5.822;2024-03-23T04:05:02;5.90;99.90
24452;DHT22;13350;50.984;5.822;2024-03-23T04:07:31;5.90;99.90
24452;DHT22;13350;50.984;5.822;2024-03-23T04:09:56;5.90;99.90
24452;DHT22;13350;50.984;5.822;2024-03-23T04:12:23;5.90;99.90
24452;DHT22;13350;50.984;5.822;2024-03-23T04:14:49;5.90;99.90
24452;DHT22;13350;50.984;5.822;2024-03-23T04:17:17;5.90;99.90
24452;DHT22;13350;50.984;5.822;2024-03-23T04:19:43;5.90;99.90
24452;DHT22;13350;50.984;5.822;2024-03-23T04:22:10;5.80;99.90
24452;DHT22;13350;50.984;5.822;2024-03-23T04:24:38;5.80;99.90
24452;DHT22;13350;50.984;5.822;2024-03-23T04:27:05;5.80;99.90
24452;DHT22;13350;50.984;5.822;2024-03-23T04:29:31;5.80;99.90
24452;DHT22;13350;50.984;5.822;2024-03-23T04:31:58;5.80;99.90
24452;DHT22;13350;50.984;5.822;2024-03-23T04:34:24;5.80;99.90
24452;DHT22;13350;50.984;5.822;2024-03-23T04:36:51;5.70;99.90
24452;DHT22;13350;50.984;5.822;2024-03-23T04:39:17;5.70;99.90
24452;DHT22;13350;50.984;5.822;2024-03-23T04:41:46;5.80;99.90
24452;DHT22;13350;50.984;5.822;2024-03-23T04:44:13;5.70;99.90
24452;DHT22;13350;50.984;5.822;2024-03-23T04:46:40;5.80;99.90
24452;DHT22;13350;50.984;5.822;2024-03-23T04:49:07;5.80;99.90
24452;DHT22;13350;50.984;5.822;2024-03-23T04:51:35;5.80;99.90
24452;DHT22;13350;50.984;5.822;2024-03-23T04:54:02;5.80;99.90
24452;DHT22;13350;50.984;5.822;2024-03-23T04:56:29;5.70;99.90
24452;DHT22;13350;50.984;5.822;2024-03-23T04:58:58;5.70;99.90
24452;DHT22;13350;50.984;5.822;2024-03-23T05:01:27;5.60;99.90
24452;DHT22;13350;50.984;5.822;2024-03-23T05:03:54;5.60;99.90
24452;DHT22;13350;50.984;5.822;2024-03-23T05:06:22;5.50;99.90
24452;DHT22;13350;50.984;5.822;2024-03-23T05:08:49;5.40;99.90
24452;DHT22;13350;50.984;5.822;2024-03-23T05:11:15;5.40;99.90
24452;DHT22;13350;50.984;5.822;2024-03-23T05:13:42;5.50;99.90
24452;DHT22;13350;50.984;5.822;2024-03-23T05:16:09;5.50;99.90
24452;DHT22;13350;50.984;5.822;2024-03-23T05:18:36;5.40;99.90
24452;DHT22;13350;50.984;5.822;2024-03-23T05:21:02;5.40;99.90
24452;DHT22;13350;50.984;5.822;2024-03-23T05:23:30;5.40;99.90
24452;DHT22;13350;50.984;5.822;2024-03-23T05:25:56;5.40;99.90
24452;DHT22;13350;50.984;5.822;2024-03-23T05:28:22;5.40;99.90
24452;DHT22;13350;50.984;5.822;2024-03-23T05:30:51;5.40;99.90
24452;DHT22;13350;50.984;5.822;2024-03-23T05:33:20;5.30;99.90
24452;DHT22;13350;50.984;5.822;2024-03-23T05:35:46;5.40;99.90
24452;DHT22;13350;50.984;5.822;2024-03-23T05:38:13;5.40;99.90
24452;DHT22;13350;50.984;5.822;2024-03-23T05:40:39;5.40;99.90
24452;DHT22;13350;50.984;5.822;2024-03-23T05:43:06;5.40;99.90
24452;DHT22;13350;50.984;5.822;2024-03-23T05:45:32;5.40;99.90
24452;DHT22;13350;50.984;5.822;2024-03-23T05:48:02;5.40;99.90
24452;DHT22;13350;50.984;5.822;2024-03-23T05:50:34;5.40;99.90
24452;DHT22;13350;50.984;5.822;2024-03-23T05:53:00;5.40;99.90
24452;DHT22;13350;50.984;5.822;2024-03-23T05:55:27;5.60;99.90
24452;DHT22;13350;50.984;5.822;2024-03-23T05:57:53;5.60;99.90
24452;DHT22;13350;50.984;5.822;2024-03-23T06:00:20;5.70;99.90
24452;DHT22;13350;50.984;5.822;2024-03-23T06:02:46;5.70;99.90
24452;DHT22;13350;50.984;5.822;2024-03-23T06:05:13;5.70;99.90
24452;DHT22;13350;50.984;5.822;2024-03-23T06:07:40;5.80;99.90
24452;DHT22;13350;50.984;5.822;2024-03-23T06:10:08;5.90;99.90
24452;DHT22;13350;50.984;5.822;2024-03-23T06:12:34;6.00;99.90
24452;DHT22;13350;50.984;5.822;2024-03-23T06:15:01;6.20;99.90
24452;DHT22;13350;50.984;5.822;2024-03-23T06:17:27;6.30;99.90
24452;DHT22;13350;50.984;5.822;2024-03-23T06:19:54;6.40;99.90
24452;DHT22;13350;50.984;5.822;2024-03-23T06:22:20;6.50;99.90
24452;DHT22;13350;50.984;5.822;2024-03-23T06:24:48;6.70;99.90
24452;DHT22;13350;50.984;5.822;2024-03-23T06:27:14;6.80;99.90
24452;DHT22;13350;50.984;5.822;2024-03-23T06:29:41;7.00;99.90
24452;DHT22;13350;50.984;5.822;2024-03-23T06:32:07;7.00;99.90
24452;DHT22;13350;50.984;5.822;2024-03-23T06:34:34;6.50;99.90
24452;DHT22;13350;50.984;5.822;2024-03-23T06:37:00;6.20;99.90
24452;DHT22;13350;50.984;5.822;2024-03-23T06:39:28;5.80;99.90
24452;DHT22;13350;50.984;5.822;2024-03-23T06:41:56;5.40;99.90
24452;DHT22;13350;50.984;5.822;2024-03-23T06:44:23;5.10;99.90
24452;DHT22;13350;50.984;5.822;2024-03-23T06:46:49;4.90;99.90
24452;DHT22;13350;50.984;5.822;2024-03-23T06:49:16;5.00;99.90
24452;DHT22;13350;50.984;5.822;2024-03-23T06:51:42;4.90;99.90
24452;DHT22;13350;50.984;5.822;2024-03-23T06:54:09;4.90;99.90
24452;DHT22;13350;50.984;5.822;2024-03-23T06:56:35;4.90;99.90
24452;DHT22;13350;50.984;5.822;2024-03-23T06:59:03;4.80;99.90
24452;DHT22;13350;50.984;5.822;2024-03-23T07:01:29;4.80;99.90
24452;DHT22;13350;50.984;5.822;2024-03-23T07:03:56;4.80;99.90
24452;DHT22;13350;50.984;5.822;2024-03-23T07:06:22;5.10;99.90
24452;DHT22;13350;50.984;5.822;2024-03-23T07:08:49;5.50;99.90
24452;DHT22;13350;50.984;5.822;2024-03-23T07:11:18;5.70;99.90
24452;DHT22;13350;50.984;5.822;2024-03-23T07:13:45;6.00;99.90
24452;DHT22;13350;50.984;5.822;2024-03-23T07:16:12;6.20;99.90
24452;DHT22;13350;50.984;5.822;2024-03-23T07:18:39;6.70;99.90
24452;DHT22;13350;50.984;5.822;2024-03-23T07:21:05;6.80;99.90
24452;DHT22;13350;50.984;5.822;2024-03-23T07:23:32;6.80;99.90
24452;DHT22;13350;50.984;5.822;2024-03-23T07:25:58;6.70;99.90
24452;DHT22;13350;50.984;5.822;2024-03-23T07:28:25;6.60;99.90
24452;DHT22;13350;50.984;5.822;2024-03-23T07:31:01;6.60;99.90
24452;DHT22;13350;50.984;5.822;2024-03-23T07:33:29;6.70;99.90
24452;DHT22;13350;50.984;5.822;2024-03-23T07:35:55;6.80;99.90
24452;DHT22;13350;50.984;5.822;2024-03-23T07:38:23;6.90;99.90
24452;DHT22;13350;50.984;5.822;2024-03-23T07:40:49;7.00;99.90
24452;DHT22;13350;50.984;5.822;2024-03-23T07:43:20;7.10;99.90
24452;DHT22;13350;50.984;5.822;2024-03-23T07:45:51;7.20;99.90
24452;DHT22;13350;50.984;5.822;2024-03-23T07:48:17;7.40;99.90
24452;DHT22;13350;50.984;5.822;2024-03-23T07:50:45;7.50;99.90
24452;DHT22;13350;50.984;5.822;2024-03-23T07:53:12;7.60;99.90
24452;DHT22;13350;50.984;5.822;2024-03-23T07:55:38;7.80;99.90
24452;DHT22;13350;50.984;5.822;2024-03-23T07:58:04;7.80;99.90
24452;DHT22;13350;50.984;5.822;2024-03-23T08:00:31;7.90;99.90
24452;DHT22;13350;50.984;5.822;2024-03-23T08:02:58;8.00;99.90
24452;DHT22;13350;50.984;5.822;2024-03-23T08:05:25;8.20;99.90
24452;DHT22;13350;50.984;5.822;2024-03-23T08:07:54;8.20;99.90
24452;DHT22;13350;50.984;5.822;2024-03-23T08:10:20;8.40;99.90
24452;DHT22;13350;50.984;5.822;2024-03-23T08:12:47;8.30;99.90
24452;DHT22;13350;50.984;5.822;2024-03-23T08:15:13;8.20;99.90
24452;DHT22;13350;50.984;5.822;2024-03-23T08:17:40;8.10;99.90
24452;DHT22;13350;50.984;5.822;2024-03-23T08:20:06;8.20;99.90
24452;DHT22;13350;50.984;5.822;2024-03-23T08:22:34;8.30;99.90
24452;DHT22;13350;50.984;5.822;2024-03-23T08:25:01;8.60;99.90
24452;DHT22;13350;50.984;5.822;2024-03-23T08:27:29;8.30;99.90
24452;DHT22;13350;50.984;5.822;2024-03-23T08:29:55;8.30;99.90
24452;DHT22;13350;50.984;5.822;2024-03-23T08:32:22;8.20;99.90
24452;DHT22;13350;50.984;5.822;2024-03-23T08:34:47;8.30;99.90
24452;DHT22;13350;50.984;5.822;2024-03-23T08:37:15;8.50;99.90
24452;DHT22;13350;50.984;5.822;2024-03-23T08:39:40;8.70;99.90
24452;DHT22;13350;50.984;5.822;2024-03-23T08:42:09;8.80;99.90
24452;DHT22;13350;50.984;5.822;2024-03-23T08:44:35;9.10;99.90
24452;DHT22;13350;50.984;5.822;2024-03-23T08:47:02;9.10;99.90
24452;DHT22;13350;50.984;5.822;2024-03-23T08:49:28;9.10;99.90
24452;DHT22;13350;50.984;5.822;2024-03-23T08:51:55;9.00;99.90
24452;DHT22;13350;50.984;5.822;2024-03-23T08:54:21;9.00;99.90
24452;DHT22;13350;50.984;5.822;2024-03-23T08:56:48;9.30;99.90
24452;DHT22;13350;50.984;5.822;2024-03-23T08:59:16;9.30;99.90
24452;DHT22;13350;50.984;5.822;2024-03-23T09:01:43;9.20;99.90
24452;DHT22;13350;50.984;5.822;2024-03-23T09:04:09;9.60;99.90
24452;DHT22;13350;50.984;5.822;2024-03-23T09:06:35;9.50;99.90
24452;DHT22;13350;50.984;5.822;2024-03-23T09:09:02;9.80;99.90
24452;DHT22;13350;50.984;5.822;2024-03-23T09:11:29;10.50;99.90
24452;DHT22;13350;50.984;5.822;2024-03-23T09:13:54;11.00;99.90
24452;DHT22;13350;50.984;5.822;2024-03-23T09:16:23;11.40;99.90
24452;DHT22;13350;50.984;5.822;2024-03-23T09:18:49;11.30;99.90
24452;DHT22;13350;50.984;5.822;2024-03-23T09:21:15;11.80;99.90
24452;DHT22;13350;50.984;5.822;2024-03-23T09:23:43;12.80;99.90
24452;DHT22;13350;50.984;5.822;2024-03-23T09:26:09;13.30;99.90
24452;DHT22;13350;50.984;5.822;2024-03-23T09:28:36;13.30;99.90
24452;DHT22;13350;50.984;5.822;2024-03-23T09:31:02;13.50;99.90
24452;DHT22;13350;50.984;5.822;2024-03-23T09:33:30;13.80;99.90
24452;DHT22;13350;50.984;5.822;2024-03-23T09:35:57;13.50;99.90
24452;DHT22;13350;50.984;5.822;2024-03-23T09:38:23;13.90;99.90
24452;DHT22;13350;50.984;5.822;2024-03-23T09:40:52;12.70;99.90
24452;DHT22;13350;50.984;5.822;2024-03-23T09:43:18;12.80;99.90
24452;DHT22;13350;50.984;5.822;2024-03-23T09:45:45;13.00;99.90
24452;DHT22;13350;50.984;5.822;2024-03-23T09:48:12;12.90;99.90
24452;DHT22;13350;50.984;5.822;2024-03-23T09:50:41;13.70;99.90
24452;DHT22;13350;50.984;5.822;2024-03-23T09:53:07;14.00;99.00
24452;DHT22;13350;50.984;5.822;2024-03-23T09:55:34;12.20;99.90
24452;DHT22;13350;50.984;5.822;2024-03-23T09:58:01;10.90;99.90
24452;DHT22;13350;50.984;5.822;2024-03-23T10:00:28;10.30;99.90
24452;DHT22;13350;50.984;5.822;2024-03-23T10:02:55;9.80;99.90
24452;DHT22;13350;50.984;5.822;2024-03-23T10:05:23;9.50;99.90
24452;DHT22;13350;50.984;5.822;2024-03-23T10:07:51;9.60;99.90
24452;DHT22;13350;50.984;5.822;2024-03-23T10:10:18;9.60;99.90
24452;DHT22;13350;50.984;5.822;2024-03-23T10:12:45;9.60;99.90
24452;DHT22;13350;50.984;5.822;2024-03-23T10:15:17;9.40;99.90
24452;DHT22;13350;50.984;5.822;2024-03-23T10:17:43;9.80;99.90
24452;DHT22;13350;50.984;5.822;2024-03-23T10:20:10;10.50;99.90
24452;DHT22;13350;50.984;5.822;2024-03-23T10:22:37;11.50;99.90
24452;DHT22;13350;50.984;5.822;2024-03-23T10:25:08;11.60;99.90
24452;DHT22;13350;50.984;5.822;2024-03-23T10:27:34;11.60;99.90
24452;DHT22;13350;50.984;5.822;2024-03-23T10:30:10;12.00;99.90
24452;DHT22;13350;50.984;5.822;2024-03-23T10:32:37;12.60;99.90
24452;DHT22;13350;50.984;5.822;2024-03-23T10:35:13;11.00;99.90
24452;DHT22;13350;50.984;5.822;2024-03-23T10:37:39;9.80;99.90
24452;DHT22;13350;50.984;5.822;2024-03-23T10:40:08;9.10;99.90
24452;DHT22;13350;50.984;5.822;2024-03-23T10:42:35;8.60;99.90
24452;DHT22;13350;50.984;5.822;2024-03-23T10:45:04;9.30;99.90
24452;DHT22;13350;50.984;5.822;2024-03-23T10:47:29;9.10;99.90
24452;DHT22;13350;50.984;5.822;2024-03-23T10:49:56;9.60;99.90
24452;DHT22;13350;50.984;5.822;2024-03-23T10:52:22;9.70;99.90
24452;DHT22;13350;50.984;5.822;2024-03-23T10:54:49;10.70;99.90
24452;DHT22;13350;50.984;5.822;2024-03-23T10:57:18;11.60;99.90
24452;DHT22;13350;50.984;5.822;2024-03-23T10:59:47;12.30;99.90
24452;DHT22;13350;50.984;5.822;2024-03-23T11:02:18;13.10;99.90
24452;DHT22;13350;50.984;5.822;2024-03-23T11:04:45;13.00;99.90
24452;DHT22;13350;50.984;5.822;2024-03-23T11:07:29;12.90;99.90
24452;DHT22;13350;50.984;5.822;2024-03-23T11:09:56;12.70;99.30
24452;DHT22;13350;50.984;5.822;2024-03-23T11:12:30;13.10;97.30
24452;DHT22;13350;50.984;5.822;2024-03-23T11:15:01;13.90;95.50
24452;DHT22;13350;50.984;5.822;2024-03-23T11:17:28;13.80;91.40
24452;DHT22;13350;50.984;5.822;2024-03-23T11:19:55;12.60;91.20
24452;DHT22;13350;50.984;5.822;2024-03-23T11:22:40;9.10;99.90
24452;DHT22;13350;50.984;5.822;2024-03-23T11:25:12;7.00;99.90
24452;DHT22;13350;50.984;5.822;2024-03-23T11:27:39;6.00;99.90
24452;DHT22;13350;50.984;5.822;2024-03-23T11:30:10;5.30;99.90
24452;DHT22;13350;50.984;5.822;2024-03-23T11:32:36;5.00;99.90
24452;DHT22;13350;50.984;5.822;2024-03-23T11:35:04;4.90;99.90
24452;DHT22;13350;50.984;5.822;2024-03-23T11:37:29;4.90;99.90
24452;DHT22;13350;50.984;5.822;2024-03-23T11:39:56;5.00;99.90
24452;DHT22;13350;50.984;5.822;2024-03-23T11:42:22;5.10;99.90
24452;DHT22;13350;50.984;5.822;2024-03-23T11:44:51;5.30;99.90
24452;DHT22;13350;50.984;5.822;2024-03-23T11:47:17;5.60;99.90
24452;DHT22;13350;50.984;5.822;2024-03-23T11:49:44;6.00;99.90
24452;DHT22;13350;50.984;5.822;2024-03-23T11:52:10;7.10;99.90
24452;DHT22;13350;50.984;5.822;2024-03-23T11:54:37;7.80;99.90
24452;DHT22;13350;50.984;5.822;2024-03-23T11:57:03;8.00;99.90
24452;DHT22;13350;50.984;5.822;2024-03-23T11:59:33;8.20;99.90
24452;DHT22;13350;50.984;5.822;2024-03-23T12:02:05;7.60;99.90
24452;DHT22;13350;50.984;5.822;2024-03-23T12:04:32;7.00;99.90
24452;DHT22;13350;50.984;5.822;2024-03-23T12:07:14;7.10;99.90
24452;DHT22;13350;50.984;5.822;2024-03-23T12:09:41;7.60;99.90
24452;DHT22;13350;50.984;5.822;2024-03-23T12:12:08;8.60;99.90
24452;DHT22;13350;50.984;5.822;2024-03-23T12:14:35;9.30;99.90
24452;DHT22;13350;50.984;5.822;2024-03-23T12:17:12;9.80;99.90
24452;DHT22;13350;50.984;5.822;2024-03-23T12:19:39;9.10;99.90
24452;DHT22;13350;50.984;5.822;2024-03-23T12:22:08;8.40;99.90
24452;DHT22;13350;50.984;5.822;2024-03-23T12:24:35;8.20;99.90
24452;DHT22;13350;50.984;5.822;2024-03-23T12:27:02;8.20;99.90
24452;DHT22;13350;50.984;5.822;2024-03-23T12:29:29;7.90;99.90
24452;DHT22;13350;50.984;5.822;2024-03-23T12:31:55;7.30;99.90
24452;DHT22;13350;50.984;5.822;2024-03-23T12:34:24;6.70;99.90
24452;DHT22;13350;50.984;5.822;2024-03-23T12:36:50;6.30;99.90
24452;DHT22;13350;50.984;5.822;2024-03-23T12:39:17;6.20;99.90
24452;DHT22;13350;50.984;5.822;2024-03-23T12:41:43;6.50;99.90
24452;DHT22;13350;50.984;5.822;2024-03-23T12:44:10;6.60;99.90
24452;DHT22;13350;50.984;5.822;2024-03-23T12:46:37;6.40;99.90
24452;DHT22;13350;50.984;5.822;2024-03-23T12:49:04;6.10;99.90
24452;DHT22;13350;50.984;5.822;2024-03-23T12:51:32;6.00;99.90
24452;DHT22;13350;50.984;5.822;2024-03-23T12:53:59;6.10;99.90
24452;DHT22;13350;50.984;5.822;2024-03-23T12:56:27;7.00;99.90
24452;DHT22;13350;50.984;5.822;2024-03-23T12:58:54;7.70;99.90
24452;DHT22;13350;50.984;5.822;2024-03-23T13:01:22;8.00;99.90
24452;DHT22;13350;50.984;5.822;2024-03-23T13:03:49;8.30;99.90
24452;DHT22;13350;50.984;5.822;2024-03-23T13:06:15;8.90;99.90
24452;DHT22;13350;50.984;5.822;2024-03-23T13:08:45;9.10;99.90
24452;DHT22;13350;50.984;5.822;2024-03-23T13:11:11;9.50;99.90
24452;DHT22;13350;50.984;5.822;2024-03-23T13:13:38;10.00;99.90
24452;DHT22;13350;50.984;5.822;2024-03-23T13:16:04;9.80;99.90
24452;DHT22;13350;50.984;5.822;2024-03-23T13:18:31;9.70;99.90
24452;DHT22;13350;50.984;5.822;2024-03-23T13:20:57;10.10;99.90
24452;DHT22;13350;50.984;5.822;2024-03-23T13:23:24;10.00;99.90
24452;DHT22;13350;50.984;5.822;2024-03-23T13:25:52;9.80;99.90
24452;DHT22;13350;50.984;5.822;2024-03-23T13:28:19;9.60;99.90
24452;DHT22;13350;50.984;5.822;2024-03-23T13:30:51;9.60;99.90
24452;DHT22;13350;50.984;5.822;2024-03-23T13:33:18;9.50;99.90
24452;DHT22;13350;50.984;5.822;2024-03-23T13:35:51;9.30;99.90
24452;DHT22;13350;50.984;5.822;2024-03-23T13:38:18;8.70;99.90
24452;DHT22;13350;50.984;5.822;2024-03-23T13:40:52;7.60;99.90
24452;DHT22;13350;50.984;5.822;2024-03-23T13:43:19;7.20;99.90
24452;DHT22;13350;50.984;5.822;2024-03-23T13:45:46;7.00;99.90
24452;DHT22;13350;50.984;5.822;2024-03-23T13:48:13;7.10;99.90
24452;DHT22;13350;50.984;5.822;2024-03-23T13:50:39;7.80;99.90
24452;DHT22;13350;50.984;5.822;2024-03-23T13:53:05;8.40;99.90
24452;DHT22;13350;50.984;5.822;2024-03-23T13:55:32;9.50;99.90
24452;DHT22;13350;50.984;5.822;2024-03-23T13:58:00;9.10;99.90
24452;DHT22;13350;50.984;5.822;2024-03-23T14:00:26;8.40;99.90
24452;DHT22;13350;50.984;5.822;2024-03-23T14:02:53;8.00;99.90
24452;DHT22;13350;50.984;5.822;2024-03-23T14:05:18;7.70;99.90
24452;DHT22;13350;50.984;5.822;2024-03-23T14:07:45;7.60;99.90
24452;DHT22;13350;50.984;5.822;2024-03-23T14:10:11;7.40;99.90
24452;DHT22;13350;50.984;5.822;2024-03-23T14:12:38;7.40;99.90
24452;DHT22;13350;50.984;5.822;2024-03-23T14:15:09;7.40;99.90
24452;DHT22;13350;50.984;5.822;2024-03-23T14:17:35;8.10;99.90
24452;DHT22;13350;50.984;5.822;2024-03-23T14:20:01;7.80;99.90
24452;DHT22;13350;50.984;5.822;2024-03-23T14:22:30;7.90;99.90
24452;DHT22;13350;50.984;5.822;2024-03-23T14:24:56;8.70;99.90
24452;DHT22;13350;50.984;5.822;2024-03-23T14:27:24;9.50;99.90
24452;DHT22;13350;50.984;5.822;2024-03-23T14:29:49;10.00;99.90
24452;DHT22;13350;50.984;5.822;2024-03-23T14:32:18;10.70;99.90
24452;DHT22;13350;50.984;5.822;2024-03-23T14:34:44;10.80;99.90
24452;DHT22;13350;50.984;5.822;2024-03-23T14:37:10;10.90;99.90
24452;DHT22;13350;50.984;5.822;2024-03-23T14:39:36;9.80;99.90
24452;DHT22;13350;50.984;5.822;2024-03-23T14:42:04;9.00;99.90
24452;DHT22;13350;50.984;5.822;2024-03-23T14:44:31;8.40;99.90
24452;DHT22;13350;50.984;5.822;2024-03-23T14:46:58;8.00;99.90
24452;DHT22;13350;50.984;5.822;2024-03-23T14:49:26;7.80;99.90
24452;DHT22;13350;50.984;5.822;2024-03-23T14:51:53;7.60;99.90
24452;DHT22;13350;50.984;5.822;2024-03-23T14:54:19;7.50;99.90
24452;DHT22;13350;50.984;5.822;2024-03-23T14:56:46;7.40;99.90
24452;DHT22;13350;50.984;5.822;2024-03-23T14:59:13;7.40;99.90
24452;DHT22;13350;50.984;5.822;2024-03-23T15:01:39;7.20;99.90
24452;DHT22;13350;50.984;5.822;2024-03-23T15:04:05;7.10;99.90
24452;DHT22;13350;50.984;5.822;2024-03-23T15:06:33;6.90;99.90
24452;DHT22;13350;50.984;5.822;2024-03-23T15:08:59;6.80;99.90
24452;DHT22;13350;50.984;5.822;2024-03-23T15:11:26;6.60;99.90
24452;DHT22;13350;50.984;5.822;2024-03-23T15:13:52;5.70;99.90
24452;DHT22;13350;50.984;5.822;2024-03-23T15:16:20;5.90;99.90
24452;DHT22;13350;50.984;5.822;2024-03-23T15:18:46;6.60;99.90
24452;DHT22;13350;50.984;5.822;2024-03-23T15:21:14;7.00;99.90
24452;DHT22;13350;50.984;5.822;2024-03-23T15:23:46;7.90;99.90
24452;DHT22;13350;50.984;5.822;2024-03-23T15:26:13;8.60;99.90
24452;DHT22;13350;50.984;5.822;2024-03-23T15:28:39;9.10;99.90
24452;DHT22;13350;50.984;5.822;2024-03-23T15:31:09;9.40;99.90
24452;DHT22;13350;50.984;5.822;2024-03-23T15:33:35;9.70;99.90
24452;DHT22;13350;50.984;5.822;2024-03-23T15:36:03;9.30;99.90
24452;DHT22;13350;50.984;5.822;2024-03-23T15:38:29;9.10;99.90
24452;DHT22;13350;50.984;5.822;2024-03-23T15:40:57;9.30;99.90
24452;DHT22;13350;50.984;5.822;2024-03-23T15:43:23;8.80;99.90
24452;DHT22;13350;50.984;5.822;2024-03-23T15:45:56;7.90;99.90
24452;DHT22;13350;50.984;5.822;2024-03-23T15:48:22;7.60;99.90
24452;DHT22;13350;50.984;5.822;2024-03-23T15:50:52;7.90;99.90
24452;DHT22;13350;50.984;5.822;2024-03-23T15:53:18;8.70;99.90
24452;DHT22;13350;50.984;5.822;2024-03-23T15:55:45;9.20;99.90
24452;DHT22;13350;50.984;5.822;2024-03-23T15:58:12;9.80;99.90
24452;DHT22;13350;50.984;5.822;2024-03-23T16:00:39;9.80;99.90
24452;DHT22;13350;50.984;5.822;2024-03-23T16:03:05;9.90;99.90
24452;DHT22;13350;50.984;5.822;2024-03-23T16:05:32;10.00;99.90
24452;DHT22;13350;50.984;5.822;2024-03-23T16:07:58;9.50;99.90
24452;DHT22;13350;50.984;5.822;2024-03-23T16:10:25;9.20;99.90
24452;DHT22;13350;50.984;5.822;2024-03-23T16:12:50;9.10;99.90
24452;DHT22;13350;50.984;5.822;2024-03-23T16:15:19;9.50;99.90
24452;DHT22;13350;50.984;5.822;2024-03-23T16:17:45;9.20;99.90
24452;DHT22;13350;50.984;5.822;2024-03-23T16:20:12;8.40;99.90
24452;DHT22;13350;50.984;5.822;2024-03-23T16:22:38;7.70;99.90
24452;DHT22;13350;50.984;5.822;2024-03-23T16:25:05;7.40;99.90
24452;DHT22;13350;50.984;5.822;2024-03-23T16:27:32;7.30;99.90
24452;DHT22;13350;50.984;5.822;2024-03-23T16:29:59;7.40;99.90
24452;DHT22;13350;50.984;5.822;2024-03-23T16:32:27;7.40;99.90
24452;DHT22;13350;50.984;5.822;2024-03-23T16:34:55;7.40;99.90
24452;DHT22;13350;50.984;5.822;2024-03-23T16:37:21;7.40;99.90